createdAt,value
2024-01-01T00:22:26.440Z,78
2024-01-01T01:22:27.665Z,76
2024-01-01T01:42:28.071Z,76
2024-01-01T02:02:28.473Z,79
2024-01-01T02:22:28.864Z,86
2024-01-01T02:42:29.276Z,91
2024-01-01T03:02:29.689Z,91
2024-01-01T04:22:31.319Z,87
2024-01-01T04:42:31.712Z,84
2024-01-01T04:52:31.917Z,84
2024-01-01T05:02:32.131Z,83
2024-01-01T05:12:32.327Z,82
2024-01-01T05:22:32.526Z,82
2024-01-01T05:32:32.919Z,82
2024-01-01T05:42:33.046Z,82
2024-01-01T05:52:33.148Z,80
2024-01-01T06:02:35.035Z,80
2024-01-01T06:12:33.546Z,80
2024-01-01T06:22:33.732Z,80
2024-01-01T06:32:34.000Z,80
2024-01-01T06:42:34.141Z,80
2024-01-01T06:52:34.369Z,80
2024-01-01T07:02:34.540Z,80
2024-01-01T07:12:35.494Z,80
2024-01-01T07:22:34.961Z,80
2024-01-01T07:32:35.163Z,80
2024-01-01T07:42:35.356Z,81
2024-01-01T07:52:35.587Z,82
2024-01-01T08:12:35.973Z,84
2024-01-01T08:22:36.221Z,84
2024-01-01T08:32:36.403Z,84
2024-01-01T08:42:36.579Z,85
2024-01-01T08:52:36.791Z,86
2024-01-01T09:02:36.993Z,85
2024-01-01T09:22:37.399Z,84
2024-01-01T09:32:37.604Z,83
2024-01-01T09:42:37.795Z,84
2024-01-01T09:52:38.011Z,84
2024-01-01T10:02:38.228Z,83
2024-01-01T10:12:38.403Z,84
2024-01-01T10:22:38.610Z,85
2024-01-01T10:32:38.932Z,85
2024-01-01T10:42:39.015Z,85
2024-01-01T11:02:39.442Z,84
2024-01-01T11:12:39.620Z,84
2024-01-01T11:22:39.870Z,82
2024-01-01T11:42:40.210Z,84
2024-01-01T11:52:40.462Z,85
2024-01-01T12:12:40.864Z,87
2024-01-01T12:22:41.051Z,86
2024-01-01T12:32:41.309Z,85
2024-01-01T12:42:41.428Z,84
2024-01-01T13:02:41.844Z,83
2024-01-01T17:42:47.512Z,86
2024-01-01T18:02:47.974Z,87
2024-01-01T18:12:48.108Z,87
2024-01-01T18:22:48.327Z,87
2024-01-01T18:32:48.696Z,87
2024-01-01T18:42:48.741Z,87
2024-01-01T18:52:49.017Z,87
2024-01-01T19:02:49.140Z,87
2024-01-01T19:12:49.356Z,87
2024-01-01T19:22:49.585Z,86
2024-01-01T19:32:49.807Z,86
2024-01-01T19:42:49.948Z,87
2024-01-01T19:52:50.203Z,87
2024-01-01T20:02:50.361Z,87
2024-01-01T20:12:50.569Z,87
2024-01-01T20:22:50.771Z,87
2024-01-01T20:32:51.038Z,88
2024-01-01T20:42:51.172Z,87
2024-01-01T20:52:55.456Z,86
2024-01-01T21:02:51.591Z,84
2024-01-01T21:12:51.793Z,84
2024-01-01T21:22:52.006Z,83
2024-01-01T21:32:52.210Z,84
2024-01-01T21:42:52.414Z,84
2024-01-01T21:52:52.617Z,84
2024-01-01T22:02:52.805Z,85
2024-01-01T22:12:53.022Z,87
2024-01-01T22:22:53.197Z,87
2024-01-01T22:32:53.449Z,89
2024-01-01T22:42:53.610Z,89
2024-01-01T22:52:53.873Z,90
2024-01-01T23:02:54.097Z,90
2024-01-01T23:12:54.222Z,90
2024-01-01T23:22:54.427Z,91
2024-01-01T23:32:56.276Z,90
2024-01-01T23:42:54.908Z,91
2024-01-01T23:52:55.119Z,91
